createdAt,value
2022-12-25T00:00:04.991Z,1.7
2022-12-25T00:01:15.000Z,1.2
2022-12-25T00:02:25.000Z,1.8
2022-12-25T00:03:35.000Z,2.2
2022-12-25T00:04:45.000Z,1.5
2022-12-25T00:05:54.000Z,1.5
2022-12-25T00:07:04.000Z,1.9
2022-12-25T00:08:14.000Z,1.4
2022-12-25T00:09:24.000Z,1.4
2022-12-25T00:10:35.000Z,1.5
2022-12-25T00:11:45.000Z,1.1
2022-12-25T00:12:54.288Z,1.7
2022-12-25T00:14:04.407Z,1.7
2022-12-25T00:15:14.517Z,1.5
2022-12-25T00:16:24.000Z,1.7
2022-12-25T00:17:34.750Z,1.6
2022-12-25T00:18:44.000Z,1.8
2022-12-25T00:19:54.000Z,1.2
2022-12-25T00:21:05.000Z,1.8
2022-12-25T00:22:15.213Z,1.4
2022-12-25T00:23:25.000Z,1.6
2022-12-25T00:24:35.000Z,1.8
2022-12-25T00:25:45.000Z,1.2
2022-12-25T00:26:55.000Z,1.9
2022-12-25T00:28:04.814Z,1
2022-12-25T00:29:14.925Z,1.7
2022-12-25T00:30:25.042Z,1.6
2022-12-25T00:31:35.156Z,2.1
2022-12-25T00:32:45.271Z,1.9
2022-12-25T00:33:55.000Z,1.1
2022-12-25T00:35:05.510Z,1.8
2022-12-25T00:36:15.000Z,1.8
2022-12-25T00:37:25.000Z,1.5
2022-12-25T00:38:35.000Z,1.6
2022-12-25T00:39:45.000Z,1.6
2022-12-25T00:40:56.000Z,1.5
2022-12-25T00:42:06.000Z,1.9
2022-12-25T00:43:15.000Z,1.8
2022-12-25T00:44:25.000Z,2.1
2022-12-25T00:45:35.000Z,1.8
2022-12-25T00:46:45.000Z,1.6
2022-12-25T00:47:55.000Z,1.7
2022-12-25T00:49:05.913Z,1.4
2022-12-25T00:50:16.000Z,1.4
2022-12-25T00:51:26.000Z,2
2022-12-25T00:52:36.000Z,1.1
2022-12-25T00:53:46.000Z,1.4
2022-12-25T00:54:56.000Z,1.5
2022-12-25T00:56:06.000Z,1.7
2022-12-25T00:57:16.000Z,1.6
2022-12-25T00:58:25.000Z,1.1
2022-12-25T00:59:35.000Z,1.6
2022-12-25T01:00:46.087Z,1.5
2022-12-25T01:01:56.201Z,1.9
2022-12-25T01:03:06.000Z,2.1
2022-12-25T01:04:16.000Z,1.7
2022-12-25T01:05:26.560Z,1.6
2022-12-25T01:06:36.673Z,1.2
2022-12-25T01:07:46.782Z,1.6
2022-12-25T01:08:56.000Z,2.1
2022-12-25T01:10:07.000Z,1.5
2022-12-25T01:11:17.000Z,1.6
2022-12-25T01:12:27.248Z,1.5
2022-12-25T01:13:36.000Z,2.1
2022-12-25T01:14:46.000Z,1.6
2022-12-25T01:15:56.611Z,1.1
2022-12-25T01:17:06.000Z,1.4
2022-12-25T01:18:16.000Z,1.6
2022-12-25T01:19:26.000Z,1.4
2022-12-25T01:20:37.000Z,1.8
2022-12-25T01:21:47.188Z,1.2
2022-12-25T01:22:57.000Z,1.7
2022-12-25T01:24:07.000Z,2
2022-12-25T01:25:17.000Z,1.3
2022-12-25T01:26:27.000Z,1.8
2022-12-25T01:27:37.000Z,1.6
2022-12-25T01:28:46.899Z,1.6
2022-12-25T01:29:57.000Z,2.2
2022-12-25T01:31:07.137Z,1.6
2022-12-25T01:32:17.000Z,1.2
2022-12-25T01:33:27.000Z,1.5
2022-12-25T01:34:37.477Z,1.6
2022-12-25T01:35:47.000Z,2.2
2022-12-25T01:36:57.000Z,1.5
2022-12-25T01:38:07.000Z,1.6
2022-12-25T01:39:17.948Z,1
2022-12-25T01:40:28.000Z,1.2
2022-12-25T01:41:38.000Z,1.5
2022-12-25T01:42:48.000Z,1.5
2022-12-25T01:43:57.000Z,1.5
2022-12-25T01:45:07.000Z,1.9
2022-12-25T01:46:17.000Z,1.7
2022-12-25T01:47:27.770Z,2.1
2022-12-25T01:48:37.000Z,1.5
2022-12-25T01:49:48.000Z,1.4
2022-12-25T01:50:58.000Z,1.7
2022-12-25T01:52:08.000Z,1.7
2022-12-25T01:53:18.000Z,1.4
2022-12-25T01:54:28.000Z,1.7
2022-12-25T01:55:38.584Z,1.4
2022-12-25T01:56:48.000Z,1.6
2022-12-25T01:57:58.814Z,1.4
2022-12-25T01:59:07.954Z,2
2022-12-25T02:00:18.061Z,1.4
2022-12-25T02:01:28.000Z,1.6
2022-12-25T02:02:38.000Z,1.5
2022-12-25T02:03:48.415Z,1.9
2022-12-25T02:04:58.000Z,2
2022-12-25T02:06:08.000Z,1.4
2022-12-25T02:07:18.755Z,1.4
2022-12-25T02:08:28.000Z,1.8
2022-12-25T02:09:38.000Z,1.8
2022-12-25T02:10:49.105Z,1.4
2022-12-25T02:11:59.000Z,1.9
2022-12-25T02:13:09.338Z,1.4
2022-12-25T02:14:18.000Z,1.3
2022-12-25T02:15:28.589Z,1.5
2022-12-25T02:16:38.000Z,1.7
2022-12-25T02:17:48.000Z,1.4
2022-12-25T02:18:58.000Z,1.5
2022-12-25T02:20:09.046Z,1.8
2022-12-25T02:21:19.175Z,1.5
2022-12-25T02:22:29.283Z,1.5
2022-12-25T02:23:39.000Z,1.6
2022-12-25T02:24:49.000Z,2.3
2022-12-25T02:25:59.644Z,1.1
2022-12-25T02:27:09.741Z,1.7
2022-12-25T02:28:19.000Z,1.6
2022-12-25T02:29:28.000Z,1.3
2022-12-25T02:30:39.112Z,1.7
2022-12-25T02:31:49.226Z,1.9
2022-12-25T02:32:59.343Z,1.6
2022-12-25T02:34:09.456Z,1.4
2022-12-25T02:35:19.000Z,1.3
2022-12-25T02:36:29.691Z,1.8
2022-12-25T02:37:39.000Z,1.8
2022-12-25T02:38:49.918Z,1.5
2022-12-25T02:40:00.047Z,1.9
2022-12-25T02:41:10.146Z,1.4
2022-12-25T02:42:20.271Z,1.2
2022-12-25T02:43:30.383Z,2
2022-12-25T02:44:39.519Z,1.7
2022-12-25T02:45:49.000Z,1.3
2022-12-25T02:46:59.745Z,1.3
2022-12-25T02:48:09.000Z,2
2022-12-25T02:49:19.000Z,1.9
2022-12-25T02:50:30.000Z,2
2022-12-25T02:51:40.209Z,1.6
2022-12-25T02:52:50.363Z,1.8
2022-12-25T02:54:00.000Z,1.4
2022-12-25T02:55:10.000Z,1.6
2022-12-25T02:56:20.712Z,1.5
2022-12-25T02:57:30.824Z,1.3
2022-12-25T02:58:40.000Z,1.3
2022-12-25T02:59:50.000Z,1.4
2022-12-25T03:01:00.000Z,2
2022-12-25T03:02:10.000Z,1.3
2022-12-25T03:03:20.000Z,1.9
2022-12-25T03:04:30.539Z,0.9
2022-12-25T03:05:40.659Z,1.1
2022-12-25T03:06:50.000Z,1.3
2022-12-25T03:08:00.888Z,1.2
2022-12-25T03:09:11.000Z,1.6
2022-12-25T03:10:21.000Z,1.4
2022-12-25T03:11:31.233Z,1.7
2022-12-25T03:12:41.000Z,1.5
2022-12-25T03:13:51.000Z,1.7
2022-12-25T03:15:00.601Z,1.4
2022-12-25T03:16:10.000Z,1.4
2022-12-25T03:17:20.000Z,1.1
2022-12-25T03:18:30.000Z,1.4
2022-12-25T03:19:41.000Z,2.1
2022-12-25T03:20:51.000Z,1.8
2022-12-25T03:22:01.000Z,1.2
2022-12-25T03:23:11.000Z,1.7
2022-12-25T03:24:21.000Z,2
2022-12-25T03:25:31.645Z,1.1
2022-12-25T03:26:41.000Z,1.1
2022-12-25T03:27:51.875Z,1.8
2022-12-25T03:29:02.000Z,1.5
2022-12-25T03:30:11.122Z,1.5
2022-12-25T03:31:21.000Z,1.2
2022-12-25T03:32:31.000Z,1.5
2022-12-25T03:33:41.000Z,1.9
2022-12-25T03:34:51.586Z,1
2022-12-25T03:36:01.703Z,1.2
2022-12-25T03:37:11.000Z,1.8
2022-12-25T03:38:21.000Z,1.5
2022-12-25T03:39:32.000Z,1.2
2022-12-25T03:40:42.167Z,1.6
2022-12-25T03:41:52.000Z,1.1
2022-12-25T03:43:02.393Z,1.5
2022-12-25T03:44:12.000Z,1.1
2022-12-25T03:45:21.642Z,1.1
2022-12-25T03:46:31.000Z,1.7
2022-12-25T03:47:41.878Z,1.2
2022-12-25T03:48:51.000Z,2
2022-12-25T03:50:02.000Z,1.5
2022-12-25T03:51:12.000Z,1.3
2022-12-25T03:52:22.353Z,1.3
2022-12-25T03:53:32.000Z,1.2
2022-12-25T03:54:42.573Z,1.4
2022-12-25T03:55:52.000Z,1.3
2022-12-25T03:57:02.000Z,1.3
2022-12-25T03:58:12.000Z,1.5
2022-12-25T03:59:23.031Z,1.1
2022-12-25T04:00:32.165Z,1.6
2022-12-25T04:01:42.282Z,1.3
2022-12-25T04:02:52.000Z,1.2
2022-12-25T04:04:02.515Z,1.6
2022-12-25T04:05:12.000Z,1.4
2022-12-25T04:06:22.746Z,1.5
2022-12-25T04:08:42.000Z,0.9
2022-12-25T04:09:51.000Z,1.5
2022-12-25T04:11:01.000Z,1.7
2022-12-25T04:12:11.000Z,1.3
2022-12-25T04:13:21.483Z,1.5
2022-12-25T04:14:31.000Z,1.5
2022-12-25T04:15:41.718Z,2
2022-12-25T04:16:51.000Z,1.6
2022-12-25T04:18:01.000Z,1.2
2022-12-25T04:19:12.000Z,1.2
2022-12-25T04:20:22.175Z,1.1
2022-12-25T04:21:32.000Z,1.3
2022-12-25T04:22:42.000Z,1.1
2022-12-25T04:23:52.522Z,1.5
2022-12-25T04:25:01.000Z,1.3
2022-12-25T04:26:11.000Z,1.2
2022-12-25T04:27:21.000Z,1.1
2022-12-25T04:28:32.001Z,1.4
2022-12-25T04:29:42.116Z,1
2022-12-25T04:30:52.232Z,1.1
2022-12-25T04:32:02.000Z,1.4
2022-12-25T04:33:12.000Z,1.4
2022-12-25T04:34:22.000Z,1.5
2022-12-25T04:35:32.000Z,1.4
2022-12-25T04:36:42.000Z,1.4
2022-12-25T04:37:52.000Z,1.4
2022-12-25T04:39:03.057Z,1.2
2022-12-25T04:40:12.177Z,1.7
2022-12-25T04:41:22.000Z,1.4
2022-12-25T04:42:32.000Z,1.5
2022-12-25T04:43:42.000Z,1.3
2022-12-25T04:44:52.000Z,2
2022-12-25T04:46:02.000Z,1.2
2022-12-25T04:47:12.000Z,1.5
2022-12-25T04:48:22.000Z,1.5
2022-12-25T04:49:33.000Z,1.5
2022-12-25T04:50:43.000Z,1.4
2022-12-25T04:51:53.000Z,1.3
2022-12-25T04:53:03.000Z,1.3
2022-12-25T04:54:13.574Z,1.3
2022-12-25T04:55:22.000Z,1.5
2022-12-25T04:56:32.817Z,1.1
2022-12-25T04:57:42.000Z,1.6
2022-12-25T04:58:53.057Z,1
2022-12-25T05:00:03.000Z,1.5
2022-12-25T05:01:13.000Z,1.2
2022-12-25T05:02:23.406Z,1.6
2022-12-25T05:03:33.512Z,1.2
2022-12-25T05:04:43.000Z,1.3
2022-12-25T05:05:53.000Z,1.4
2022-12-25T05:07:03.862Z,1.4
2022-12-25T05:08:13.973Z,1.7
2022-12-25T05:09:24.000Z,1.5
2022-12-25T05:10:33.000Z,1.6
2022-12-25T05:11:43.000Z,1.2
2022-12-25T05:12:53.000Z,1.7
2022-12-25T05:14:03.000Z,1.3
2022-12-25T05:15:13.000Z,1.2
2022-12-25T05:16:23.000Z,1.7
2022-12-25T05:17:33.919Z,1.4
2022-12-25T05:18:44.038Z,1.1
2022-12-25T05:19:54.152Z,1.7
2022-12-25T05:21:04.000Z,1.4
2022-12-25T05:22:14.000Z,1.7
2022-12-25T05:23:24.000Z,1.3
2022-12-25T05:24:34.000Z,1.6
2022-12-25T05:25:43.745Z,1
2022-12-25T05:26:53.000Z,1.2
2022-12-25T05:28:03.000Z,0.9
2022-12-25T05:29:14.105Z,1
2022-12-25T05:30:24.208Z,1.7
2022-12-25T05:31:34.000Z,1.1
2022-12-25T05:32:44.000Z,1.6
2022-12-25T05:33:54.000Z,1.5
2022-12-25T05:35:04.000Z,1.2
2022-12-25T05:36:14.000Z,1.9
2022-12-25T05:37:24.000Z,0.9
2022-12-25T05:38:35.000Z,1.2
2022-12-25T05:39:45.133Z,1.6
2022-12-25T05:40:54.000Z,1.1
2022-12-25T05:42:04.387Z,1.2
2022-12-25T05:43:14.502Z,1.3
2022-12-25T05:44:24.000Z,1.2
2022-12-25T05:45:34.000Z,0.9
2022-12-25T05:46:44.000Z,1.6
2022-12-25T05:47:54.964Z,1.4
2022-12-25T05:49:05.000Z,0.8
2022-12-25T05:50:15.000Z,1.1
2022-12-25T05:51:25.327Z,1.3
2022-12-25T05:52:35.000Z,1.5
2022-12-25T05:53:45.545Z,1.6
2022-12-25T05:54:55.000Z,1.1
2022-12-25T05:56:04.000Z,1.1
2022-12-25T05:57:14.000Z,1.1
2022-12-25T05:58:25.000Z,1.1
2022-12-25T05:59:35.000Z,1.1
2022-12-25T06:00:45.000Z,1.3
2022-12-25T06:01:55.000Z,0.8
2022-12-25T06:03:05.487Z,1
2022-12-25T06:04:15.000Z,1
2022-12-25T06:05:25.718Z,1.3
2022-12-25T06:06:35.000Z,1.2
2022-12-25T06:07:45.000Z,1.4
2022-12-25T06:08:56.000Z,0.9
2022-12-25T06:10:06.188Z,1.2
2022-12-25T06:11:15.000Z,1.3
2022-12-25T06:12:25.000Z,1.1
2022-12-25T06:13:35.000Z,1.2
2022-12-25T06:14:45.000Z,1.2
2022-12-25T06:15:55.779Z,1.1
2022-12-25T06:17:05.895Z,1.1
2022-12-25T06:18:16.000Z,1.1
2022-12-25T06:19:26.128Z,1.2
2022-12-25T06:20:36.238Z,1.8
2022-12-25T06:21:46.354Z,1.1
2022-12-25T06:22:56.479Z,1.3
2022-12-25T06:24:06.587Z,1.4
2022-12-25T06:25:16.000Z,1.3
2022-12-25T06:26:25.000Z,1.3
2022-12-25T06:27:35.951Z,1.2
2022-12-25T06:28:46.070Z,0.7
2022-12-25T06:29:56.000Z,1.3
2022-12-25T06:31:06.000Z,1.2
2022-12-25T06:32:16.417Z,1
2022-12-25T06:33:26.000Z,0.8
2022-12-25T06:34:36.000Z,1.5
2022-12-25T06:35:46.768Z,1.2
2022-12-25T06:36:56.000Z,1.3
2022-12-25T06:38:07.000Z,1.3
2022-12-25T06:39:17.116Z,1
2022-12-25T06:40:27.232Z,1.7
2022-12-25T06:41:36.000Z,1.2
2022-12-25T06:42:46.000Z,1.1
2022-12-25T06:43:56.000Z,1.1
2022-12-25T06:45:06.707Z,1.2
2022-12-25T06:46:16.000Z,1.2
2022-12-25T06:47:26.000Z,1.1
2022-12-25T06:48:37.000Z,1.4
2022-12-25T06:49:47.000Z,1.3
2022-12-25T06:50:57.000Z,1
2022-12-25T06:52:07.000Z,1.3
2022-12-25T06:53:17.522Z,1.2
2022-12-25T06:54:27.000Z,1.3
2022-12-25T06:55:37.752Z,1.1
2022-12-25T06:56:46.000Z,0.9
2022-12-25T06:57:56.996Z,0.9
2022-12-25T06:59:07.000Z,0.9
2022-12-25T07:00:17.000Z,0.8
2022-12-25T07:01:27.000Z,0.9
2022-12-25T07:02:37.000Z,0.6
2022-12-25T07:03:47.000Z,0.7
2022-12-25T07:04:57.000Z,1.5
2022-12-25T07:06:07.000Z,0.8
2022-12-25T07:07:17.000Z,1.1
2022-12-25T07:08:28.000Z,1.4
2022-12-25T07:09:38.161Z,0.7
2022-12-25T07:10:48.000Z,1.6
2022-12-25T07:11:57.000Z,1.4
2022-12-25T07:13:07.534Z,1.2
2022-12-25T07:14:17.000Z,1.4
2022-12-25T07:15:27.000Z,0.8
2022-12-25T07:16:37.000Z,1.1
2022-12-25T07:17:47.000Z,1.2
2022-12-25T07:18:58.000Z,0.9
2022-12-25T07:20:08.000Z,1.1
2022-12-25T07:21:18.332Z,1.2
2022-12-25T07:22:28.000Z,1
2022-12-25T07:23:38.567Z,1.2
2022-12-25T07:24:48.000Z,0.8
2022-12-25T07:25:58.000Z,1
2022-12-25T07:27:07.930Z,1.2
2022-12-25T07:28:18.000Z,0.8
2022-12-25T07:29:28.000Z,0.8
2022-12-25T07:30:38.000Z,1.1
2022-12-25T07:31:48.393Z,0.8
2022-12-25T07:32:58.000Z,0.9
2022-12-25T07:34:08.000Z,0.9
2022-12-25T07:35:18.000Z,1
2022-12-25T07:36:28.000Z,1.3
2022-12-25T07:37:38.000Z,1.3
2022-12-25T07:38:49.090Z,1.2
2022-12-25T07:39:59.000Z,1
2022-12-25T07:41:09.000Z,0.9
2022-12-25T07:42:18.461Z,1.3
2022-12-25T07:43:28.000Z,0.6
2022-12-25T07:44:38.680Z,1.3
2022-12-25T07:45:48.000Z,0.9
2022-12-25T07:46:58.000Z,1
2022-12-25T07:48:09.000Z,1.2
2022-12-25T07:49:19.154Z,1
2022-12-25T07:50:29.264Z,1.2
2022-12-25T07:51:39.000Z,1.2
2022-12-25T07:52:49.000Z,0.9
2022-12-25T07:53:59.608Z,0.8
2022-12-25T07:55:09.000Z,1.2
2022-12-25T07:56:19.841Z,0.9
2022-12-25T07:57:28.990Z,0.9
2022-12-25T07:58:39.000Z,0.6
2022-12-25T07:59:49.205Z,1.1
2022-12-25T08:00:59.325Z,1.1
2022-12-25T08:02:09.436Z,0.7
2022-12-25T08:03:19.000Z,1
2022-12-25T08:04:28.000Z,1
2022-12-25T08:05:38.000Z,1.4
2022-12-25T08:06:48.000Z,1
2022-12-25T08:07:59.000Z,0.9
2022-12-25T08:09:09.000Z,0.9
2022-12-25T08:10:19.272Z,0.6
2022-12-25T08:11:29.387Z,1
2022-12-25T08:12:39.000Z,1.3
2022-12-25T08:13:49.619Z,0.9
2022-12-25T08:14:59.000Z,1
2022-12-25T08:16:09.000Z,1
2022-12-25T08:17:19.000Z,1.1
2022-12-25T08:18:30.000Z,1.1
2022-12-25T08:19:39.000Z,0.7
2022-12-25T08:20:49.000Z,0.9
2022-12-25T08:21:59.000Z,1.1
2022-12-25T08:23:09.000Z,0.7
2022-12-25T08:24:19.675Z,1.5
2022-12-25T08:25:29.000Z,0.8
2022-12-25T08:26:39.000Z,1.2
2022-12-25T08:27:50.000Z,1
2022-12-25T08:29:00.000Z,1
2022-12-25T08:30:10.000Z,1
2022-12-25T08:31:20.373Z,0.9
2022-12-25T08:32:30.000Z,1.2
2022-12-25T08:33:40.000Z,0.8
2022-12-25T08:34:49.000Z,1.2
2022-12-25T08:35:59.849Z,0.7
2022-12-25T08:37:09.000Z,0.8
2022-12-25T08:38:20.000Z,0.7
2022-12-25T08:39:30.000Z,0.8
2022-12-25T08:40:40.315Z,0.8
2022-12-25T08:41:50.000Z,0.7
2022-12-25T08:43:00.000Z,0.8
2022-12-25T08:44:10.000Z,0.8
2022-12-25T08:45:20.000Z,0.7
2022-12-25T08:46:30.897Z,0.7
2022-12-25T08:47:41.000Z,0.7
2022-12-25T08:48:51.127Z,1.3
2022-12-25T08:50:00.275Z,1.1
2022-12-25T08:51:10.000Z,0.7
2022-12-25T08:52:20.488Z,1.2
2022-12-25T08:53:30.621Z,1
2022-12-25T08:54:40.000Z,1.1
2022-12-25T08:55:50.000Z,0.8
2022-12-25T08:57:00.000Z,0.8
2022-12-25T08:58:11.000Z,1.2
2022-12-25T08:59:21.000Z,0.7
2022-12-25T09:00:31.000Z,0.5
2022-12-25T09:01:41.000Z,1.4
2022-12-25T09:02:51.000Z,1.2
2022-12-25T09:04:01.000Z,1
2022-12-25T09:05:10.000Z,0.9
2022-12-25T09:06:20.897Z,0.6
2022-12-25T09:07:31.000Z,0.9
2022-12-25T09:08:41.000Z,0.8
2022-12-25T09:09:51.248Z,1
2022-12-25T09:11:01.000Z,0.8
2022-12-25T09:12:11.479Z,0.8
2022-12-25T09:13:21.000Z,0.9
2022-12-25T09:14:31.000Z,0.8
2022-12-25T09:15:41.000Z,0.7
2022-12-25T09:16:51.943Z,0.8
2022-12-25T09:18:02.055Z,0.8
2022-12-25T09:19:12.000Z,0.8
2022-12-25T09:20:21.000Z,1
2022-12-25T09:21:31.000Z,0.5
2022-12-25T09:22:41.000Z,0.8
2022-12-25T09:23:51.659Z,0.6
2022-12-25T09:25:01.765Z,0.8
2022-12-25T09:26:11.885Z,0.8
2022-12-25T09:27:22.000Z,0.7
2022-12-25T09:28:32.000Z,0.8
2022-12-25T09:29:42.000Z,0.6
2022-12-25T09:30:52.000Z,0.9
2022-12-25T09:32:02.000Z,0.8
2022-12-25T09:33:12.000Z,1.1
2022-12-25T09:34:22.000Z,0.7
2022-12-25T09:35:31.000Z,1.1
2022-12-25T09:36:41.000Z,0.9
2022-12-25T09:37:52.000Z,0.6
2022-12-25T09:39:02.000Z,0.5
2022-12-25T09:40:12.289Z,0.8
2022-12-25T09:41:22.000Z,1.1
2022-12-25T09:42:32.000Z,0.8
2022-12-25T09:43:42.000Z,0.7
2022-12-25T09:44:52.000Z,0.9
2022-12-25T09:46:02.869Z,0.9
2022-12-25T09:47:12.000Z,0.9
2022-12-25T09:48:23.000Z,0.5
2022-12-25T09:49:33.000Z,0.9
2022-12-25T09:50:42.000Z,0.7
2022-12-25T09:51:52.466Z,0.7
2022-12-25T09:53:02.588Z,1
2022-12-25T09:54:12.705Z,0.6
2022-12-25T09:55:22.000Z,1
2022-12-25T09:56:32.000Z,0.8
2022-12-25T09:57:43.000Z,0.9
2022-12-25T09:58:53.000Z,0.6
2022-12-25T10:00:03.300Z,0.8
2022-12-25T10:01:13.395Z,0.8
2022-12-25T10:03:33.000Z,0.7
2022-12-25T10:04:43.747Z,0.8
2022-12-25T10:05:52.877Z,0.6
2022-12-25T10:07:03.000Z,0.6
2022-12-25T10:08:13.110Z,0.8
2022-12-25T10:09:23.000Z,0.6
2022-12-25T10:10:33.000Z,0.8
2022-12-25T10:11:43.000Z,0.4
2022-12-25T10:12:53.000Z,0.6
2022-12-25T10:14:03.000Z,0.6
2022-12-25T10:15:13.000Z,0.3
2022-12-25T10:16:23.000Z,0.7
2022-12-25T10:17:34.035Z,0.5
2022-12-25T10:18:44.000Z,0.7
2022-12-25T10:19:54.000Z,0.9
2022-12-25T10:21:03.415Z,0.5
2022-12-25T10:22:13.000Z,0.5
2022-12-25T10:23:23.000Z,0.6
2022-12-25T10:24:33.000Z,1.1
2022-12-25T10:25:43.000Z,0.8
2022-12-25T10:26:53.000Z,0.8
2022-12-25T10:28:04.093Z,0.8
2022-12-25T10:29:14.000Z,0.9
2022-12-25T10:30:24.000Z,0.6
2022-12-25T10:31:34.000Z,1.1
2022-12-25T10:32:44.555Z,0.8
2022-12-25T10:33:54.000Z,0.6
2022-12-25T10:35:04.000Z,0.8
2022-12-25T10:36:13.000Z,0.8
2022-12-25T10:37:24.000Z,0.9
2022-12-25T10:38:34.000Z,0.5
2022-12-25T10:39:44.000Z,1.1
2022-12-25T10:40:54.389Z,0.8
2022-12-25T10:42:04.504Z,0.5
2022-12-25T10:43:14.615Z,0.5
2022-12-25T10:44:24.000Z,0.8
2022-12-25T10:45:34.856Z,0.5
2022-12-25T10:46:44.961Z,0.5
2022-12-25T10:47:55.000Z,0.5
2022-12-25T10:49:05.206Z,0.7
2022-12-25T10:50:15.319Z,0.6
2022-12-25T10:51:24.446Z,0.6
2022-12-25T10:52:34.000Z,0.8
2022-12-25T10:53:44.000Z,0.9
2022-12-25T10:54:54.000Z,0.5
2022-12-25T10:56:04.905Z,0.7
2022-12-25T10:57:15.000Z,0.8
2022-12-25T10:58:25.137Z,0.4
2022-12-25T10:59:35.000Z,1.1
2022-12-25T11:00:45.368Z,0.6
2022-12-25T11:01:55.496Z,0.5
2022-12-25T11:03:05.000Z,0.6
2022-12-25T11:04:15.000Z,0.8
2022-12-25T11:05:25.000Z,0.6
2022-12-25T11:06:34.972Z,0.7
2022-12-25T11:07:45.000Z,0.6
2022-12-25T11:08:55.201Z,0.7
2022-12-25T11:10:05.312Z,0.8
2022-12-25T11:11:15.000Z,0.7
2022-12-25T11:12:25.550Z,0.6
2022-12-25T11:13:35.000Z,0.7
2022-12-25T11:14:45.789Z,0.5
2022-12-25T11:15:55.895Z,0.8
2022-12-25T11:17:06.014Z,0.9
2022-12-25T11:18:16.133Z,0.8
2022-12-25T11:19:26.244Z,0.7
2022-12-25T11:20:36.000Z,0.6
2022-12-25T11:21:45.000Z,0.6
2022-12-25T11:22:55.606Z,0.9
2022-12-25T11:24:05.727Z,0.8
2022-12-25T11:25:15.000Z,0.7
2022-12-25T11:26:25.948Z,0.4
2022-12-25T11:27:36.000Z,0.6
2022-12-25T11:28:46.000Z,0.6
2022-12-25T11:29:56.000Z,0.7
2022-12-25T11:31:06.412Z,0.6
2022-12-25T11:32:16.531Z,0.5
2022-12-25T11:33:26.643Z,0.7
2022-12-25T11:34:36.000Z,0.5
2022-12-25T11:35:46.000Z,0.5
2022-12-25T11:36:56.009Z,0.4
2022-12-25T11:38:06.000Z,0.5
2022-12-25T11:39:16.249Z,0.8
2022-12-25T11:40:26.000Z,0.4
2022-12-25T11:41:36.000Z,0.8
2022-12-25T11:42:46.000Z,0.6
2022-12-25T11:43:56.000Z,0.7
2022-12-25T11:45:06.000Z,0.6
2022-12-25T11:46:16.937Z,0.5
2022-12-25T11:47:27.000Z,0.6
2022-12-25T11:48:37.165Z,0.8
2022-12-25T11:49:47.000Z,0.8
2022-12-25T11:50:57.000Z,0.6
2022-12-25T11:52:06.000Z,0.6
2022-12-25T11:53:16.649Z,0.6
2022-12-25T11:54:26.000Z,0.8
2022-12-25T11:55:36.885Z,0.7
2022-12-25T11:56:46.995Z,0.6
2022-12-25T11:57:57.109Z,0.5
2022-12-25T11:59:06.000Z,0.7
2022-12-25T12:00:16.000Z,0.3
2022-12-25T12:01:26.481Z,0.7
2022-12-25T12:02:36.598Z,0.6
2022-12-25T12:03:46.000Z,0.8
2022-12-25T12:04:56.000Z,0.8
2022-12-25T12:06:06.000Z,0.7
2022-12-25T12:07:17.057Z,0.9
2022-12-25T12:08:27.186Z,0.5
2022-12-25T12:09:37.000Z,0.9
2022-12-25T12:10:47.000Z,0.4
2022-12-25T12:11:57.521Z,0.8
2022-12-25T12:13:07.000Z,0.7
2022-12-25T12:14:16.767Z,0.5
2022-12-25T12:15:26.000Z,0.6
2022-12-25T12:16:37.002Z,0.8
2022-12-25T12:17:47.000Z,0.9
2022-12-25T12:18:57.000Z,0.5
2022-12-25T12:20:07.000Z,0.6
2022-12-25T12:21:17.000Z,0.7
2022-12-25T12:22:27.000Z,0.7
2022-12-25T12:23:37.696Z,0.4
2022-12-25T12:24:47.000Z,0.7
2022-12-25T12:25:57.927Z,0.6
2022-12-25T12:27:08.000Z,0.8
2022-12-25T12:28:18.000Z,0.6
2022-12-25T12:29:27.000Z,0.4
2022-12-25T12:30:37.446Z,0.5
2022-12-25T12:31:47.000Z,0.9
2022-12-25T12:32:57.000Z,0.6
2022-12-25T12:34:07.792Z,0.6
2022-12-25T12:35:17.000Z,0.6
2022-12-25T12:36:28.000Z,0.6
2022-12-25T12:37:38.000Z,0.5
2022-12-25T12:38:48.280Z,0.4
2022-12-25T12:39:58.000Z,0.7
2022-12-25T12:41:08.493Z,0.8
2022-12-25T12:42:18.000Z,0.7
2022-12-25T12:43:28.000Z,0.9
2022-12-25T12:44:37.000Z,0.7
2022-12-25T12:45:47.967Z,0.6
2022-12-25T12:46:58.000Z,0.7
2022-12-25T12:48:08.000Z,0.4
2022-12-25T12:49:18.000Z,0.4
2022-12-25T12:50:28.431Z,0.4
2022-12-25T12:51:38.000Z,0.5
2022-12-25T12:52:48.680Z,0.6
2022-12-25T12:53:58.000Z,0.9
2022-12-25T12:55:08.898Z,0.9
2022-12-25T12:56:19.000Z,0.6
2022-12-25T12:57:29.000Z,0.6
2022-12-25T12:58:39.000Z,0.5
2022-12-25T12:59:48.000Z,0.5
2022-12-25T13:00:58.000Z,0.6
2022-12-25T13:02:08.000Z,0.3
2022-12-25T13:03:18.000Z,0.6
2022-12-25T13:04:28.846Z,0.6
2022-12-25T13:05:38.000Z,0.9
2022-12-25T13:06:49.078Z,0.7
2022-12-25T13:07:59.186Z,0.5
2022-12-25T13:09:09.313Z,0.8
2022-12-25T13:10:19.000Z,0.5
2022-12-25T13:11:29.000Z,0.4
2022-12-25T13:12:39.650Z,1
2022-12-25T13:13:49.773Z,0.6
2022-12-25T13:14:58.000Z,0.5
2022-12-25T13:16:09.000Z,0.7
2022-12-25T13:17:19.134Z,0.3
2022-12-25T13:18:29.255Z,0.7
2022-12-25T13:19:39.000Z,0.8
2022-12-25T13:20:49.000Z,0.5
2022-12-25T13:21:59.000Z,0.3
2022-12-25T13:23:09.000Z,0.7
2022-12-25T13:24:19.000Z,0.4
2022-12-25T13:25:29.940Z,0.5
2022-12-25T13:26:40.056Z,0.5
2022-12-25T13:27:50.000Z,0.7
2022-12-25T13:29:00.000Z,0.7
2022-12-25T13:30:09.000Z,0.7
2022-12-25T13:31:19.537Z,0.4
2022-12-25T13:32:29.659Z,0.7
2022-12-25T13:33:39.774Z,0.6
2022-12-25T13:34:49.892Z,0.4
2022-12-25T13:36:00.000Z,0.9
2022-12-25T13:37:10.000Z,0.8
2022-12-25T13:38:20.000Z,0.6
2022-12-25T13:39:30.351Z,0.5
2022-12-25T13:40:40.000Z,0.7
2022-12-25T13:41:50.000Z,0.5
2022-12-25T13:43:00.000Z,0.7
2022-12-25T13:44:10.000Z,0.5
2022-12-25T13:45:19.000Z,0.6
2022-12-25T13:46:30.000Z,0.5
2022-12-25T13:47:40.191Z,0.7
2022-12-25T13:48:50.000Z,0.7
2022-12-25T13:50:00.000Z,0.6
2022-12-25T13:51:10.000Z,0.4
2022-12-25T13:52:20.645Z,0.4
2022-12-25T13:53:30.761Z,0.5
2022-12-25T13:54:40.000Z,0.4
2022-12-25T13:55:50.000Z,0.5
2022-12-25T13:57:01.000Z,0.7
2022-12-25T13:58:11.000Z,0.4
2022-12-25T13:59:21.000Z,0.6
2022-12-25T14:00:30.000Z,0.8
2022-12-25T14:01:40.579Z,0.9
2022-12-25T14:02:50.696Z,0.7
2022-12-25T14:04:00.811Z,0.3
2022-12-25T14:05:10.000Z,0.6
2022-12-25T14:06:21.000Z,0.6
2022-12-25T14:07:31.164Z,0.5
2022-12-25T14:08:41.000Z,0.4
2022-12-25T14:09:51.000Z,0.5
2022-12-25T14:11:01.000Z,0.5
2022-12-25T14:12:11.000Z,0.4
2022-12-25T14:13:21.000Z,0.4
2022-12-25T14:14:31.861Z,0.5
2022-12-25T14:15:40.995Z,0.6
2022-12-25T14:16:51.000Z,0.8
2022-12-25T14:18:01.217Z,0.5
2022-12-25T14:19:11.000Z,0.7
2022-12-25T14:20:21.000Z,0.4
2022-12-25T14:21:31.000Z,0.6
2022-12-25T14:22:41.000Z,0.5
2022-12-25T14:23:51.000Z,0.4
2022-12-25T14:25:01.000Z,0.7
2022-12-25T14:26:12.000Z,0.8
2022-12-25T14:27:22.000Z,0.8
2022-12-25T14:28:32.000Z,0.7
2022-12-25T14:29:42.000Z,0.8
2022-12-25T14:30:51.510Z,1
2022-12-25T14:32:01.627Z,0.7
2022-12-25T14:33:11.000Z,0.5
2022-12-25T14:34:21.000Z,0.8
2022-12-25T14:35:31.978Z,0.5
2022-12-25T14:36:42.000Z,0.7
2022-12-25T14:37:52.214Z,0.7
2022-12-25T14:39:02.324Z,0.6
2022-12-25T14:40:12.000Z,0.6
2022-12-25T14:41:22.000Z,0.5
2022-12-25T14:42:32.672Z,0.5
2022-12-25T14:43:42.000Z,0.4
2022-12-25T14:44:52.915Z,0.5
2022-12-25T14:46:02.000Z,0.5
2022-12-25T14:47:12.000Z,0.6
2022-12-25T14:48:22.000Z,0.7
2022-12-25T14:49:32.000Z,0.6
2022-12-25T14:50:42.000Z,0.6
2022-12-25T14:51:52.610Z,0.6
2022-12-25T14:53:02.000Z,0.4
2022-12-25T14:54:12.845Z,1.1
2022-12-25T14:55:22.000Z,0.8
2022-12-25T14:56:33.000Z,0.3
2022-12-25T14:57:43.000Z,0.8
2022-12-25T14:58:53.000Z,0.5
2022-12-25T15:00:03.456Z,0.5
2022-12-25T15:01:12.000Z,0.4
2022-12-25T15:02:22.000Z,0.5
2022-12-25T15:03:32.789Z,0.5
2022-12-25T15:04:42.000Z,0.6
2022-12-25T15:05:53.000Z,0.4
2022-12-25T15:07:03.000Z,0.9
2022-12-25T15:08:13.268Z,0.6
2022-12-25T15:09:23.000Z,0.3
2022-12-25T15:10:33.483Z,0.4
2022-12-25T15:11:43.000Z,0.6
2022-12-25T15:12:53.713Z,0.5
2022-12-25T15:14:03.000Z,0.5
2022-12-25T15:15:13.943Z,0.6
2022-12-25T15:16:23.000Z,0.5
2022-12-25T15:17:33.000Z,0.4
2022-12-25T15:18:43.308Z,0.6
2022-12-25T15:19:53.000Z,0.5
2022-12-25T15:21:03.000Z,0.6
2022-12-25T15:22:13.000Z,0.7
2022-12-25T15:23:23.000Z,0.5
2022-12-25T15:24:33.888Z,0.7
2022-12-25T15:25:44.000Z,0.7
2022-12-25T15:26:54.000Z,0.5
2022-12-25T15:28:04.000Z,0.5
2022-12-25T15:29:14.356Z,0.8
2022-12-25T15:30:24.468Z,0.5
2022-12-25T15:31:33.600Z,0.8
2022-12-25T15:32:43.000Z,0.6
2022-12-25T15:33:53.000Z,0.3
2022-12-25T15:35:03.000Z,0.7
2022-12-25T15:36:14.000Z,0.8
2022-12-25T15:37:24.000Z,0.6
2022-12-25T15:38:34.299Z,0.5
2022-12-25T15:39:44.000Z,0.6
2022-12-25T15:40:54.532Z,0.6
2022-12-25T15:42:04.000Z,0.7
2022-12-25T15:43:14.000Z,0.7
2022-12-25T15:44:24.875Z,0.7
2022-12-25T15:45:35.000Z,0.5
2022-12-25T15:46:44.000Z,0.7
2022-12-25T15:47:54.000Z,0.4
2022-12-25T15:49:04.359Z,0.8
2022-12-25T15:50:14.000Z,0.5
2022-12-25T15:51:24.000Z,0.6
2022-12-25T15:52:34.000Z,0.7
2022-12-25T15:53:43.000Z,0.7
2022-12-25T15:54:53.985Z,0.5
2022-12-25T15:56:04.000Z,0.6
2022-12-25T15:57:14.000Z,0.5
2022-12-25T15:58:24.306Z,0.6
2022-12-25T15:59:34.425Z,0.7
2022-12-25T16:00:44.000Z,0.7
2022-12-25T16:01:54.000Z,0.8
2022-12-25T16:03:04.000Z,0.6
2022-12-25T16:04:14.000Z,0.5
2022-12-25T16:05:25.006Z,1
2022-12-25T16:06:35.000Z,0.4
2022-12-25T16:07:45.238Z,0.4
2022-12-25T16:08:54.000Z,0.4
2022-12-25T16:10:04.000Z,0.6